Time;durP1;ratioP1;P1;durP2;ratioP2;P2;SDS_P1;SDS_P2;PMS_P1;PMS_P2;Temp;Humidity;BMP_temperature;BMP_pressure;BME280_temperature;BME280_humidity;BME280_pressure;Samples;Min_cycle;Max_cycle;Signal;HPM_P1;HPM_P2
2022/01/22 00:00:28;;;;;;;3.95;1.83;;;16.80;51.10;;;;;;5001604;28;46497;-78
2022/01/22 00:02:55;;;;;;;2.63;1.70;;;16.80;51.10;;;;;;5002899;28;46011;-78
2022/01/22 00:05:23;;;;;;;3.42;1.75;;;16.80;51.10;;;;;;5004596;28;45310;-78
2022/01/22 00:07:51;;;;;;;3.67;1.90;;;16.80;51.10;;;;;;4999021;28;45256;-78
2022/01/22 00:10:22;;;;;;;3.30;1.70;;;16.80;51.60;;;;;;4997056;28;46363;-78
2022/01/22 00:15:32;;;;;;;3.42;1.77;;;16.80;51.10;;;;;;4970007;28;45321;-77
2022/01/22 00:17:59;;;;;;;2.92;1.52;;;16.80;51.10;;;;;;5000590;28;45447;-77
2022/01/22 00:20:28;;;;;;;3.28;1.75;;;16.80;51.10;;;;;;5001200;28;48144;-77
2022/01/22 00:22:55;;;;;;;5.47;2.00;;;16.80;51.10;;;;;;5005361;28;45462;-77
2022/01/22 00:25:23;;;;;;;5.32;1.75;;;16.90;51.10;;;;;;5002218;28;45296;-77
2022/01/22 00:27:51;;;;;;;4.30;1.52;;;16.80;51.10;;;;;;5004080;28;45562;-77
2022/01/22 00:30:20;;;;;;;3.10;1.80;;;16.90;51.10;;;;;;5006908;28;46745;-77
2022/01/22 00:32:48;;;;;;;4.05;1.90;;;16.80;51.10;;;;;;5001277;28;45268;-78
2022/01/22 00:35:15;;;;;;;3.92;1.90;;;16.90;51.10;;;;;;5000953;28;45292;-78
2022/01/22 00:37:44;;;;;;;4.03;1.60;;;16.80;51.10;;;;;;5003047;28;45442;-78
2022/01/22 00:40:11;;;;;;;4.20;1.70;;;16.80;51.10;;;;;;5005474;28;45595;-78
2022/01/22 00:42:40;;;;;;;4.85;2.00;;;16.80;51.10;;;;;;5000191;28;45305;-77
2022/01/22 00:45:08;;;;;;;4.00;1.70;;;16.80;51.10;;;;;;5002072;28;45320;-77
2022/01/22 00:47:35;;;;;;;3.35;1.65;;;16.80;51.10;;;;;;4997799;28;45520;-77
2022/01/22 00:50:03;;;;;;;3.53;1.75;;;16.80;51.10;;;;;;5002969;28;46229;-78
2022/01/22 00:52:29;;;;;;;2.80;1.80;;;16.80;51.10;;;;;;5005071;28;45324;-77
2022/01/22 00:54:56;;;;;;;5.05;1.88;;;16.80;51.10;;;;;;5003561;28;45577;-78
2022/01/22 00:57:23;;;;;;;2.83;1.50;;;16.80;51.10;;;;;;5000265;28;45407;-77
2022/01/22 00:59:54;;;;;;;3.22;1.58;;;16.80;51.10;;;;;;5008961;28;46671;-78
2022/01/22 01:02:21;;;;;;;3.78;1.50;;;16.70;51.00;;;;;;5005852;28;45358;-78
2022/01/22 01:04:47;;;;;;;3.45;1.50;;;16.70;51.10;;;;;;5009532;28;45273;-77
2022/01/22 01:07:14;;;;;;;2.78;1.48;;;16.70;51.10;;;;;;5004665;28;46057;-78
2022/01/22 01:09:41;;;;;;;4.03;1.70;;;16.70;51.80;;;;;;5004598;28;47404;-77
2022/01/22 01:12:11;;;;;;;2.75;1.63;;;16.70;51.40;;;;;;5005054;28;45210;-78
2022/01/22 01:14:43;;;;;;;3.45;1.30;;;16.80;51.20;;;;;;5007206;28;45630;-78
2022/01/22 01:17:29;;;;;;;4.85;1.60;;;16.80;51.40;;;;;;5009688;28;45502;-78
2022/01/22 01:33:58;;;;;;;3.60;2.17;;;16.80;51.10;;;;;;5008663;28;45208;-78
2022/01/22 01:36:25;;;;;;;3.25;1.85;;;16.70;51.00;;;;;;5009111;28;45328;-78
2022/01/22 01:38:56;;;;;;;3.22;1.88;;;16.70;51.00;;;;;;5009729;28;45261;-78
2022/01/22 01:41:30;;;;;;;5.03;2.13;;;16.70;51.00;;;;;;5008875;28;46309;-77
2022/01/22 01:43:57;;;;;;;2.42;1.85;;;16.70;51.00;;;;;;5008653;28;45336;-78
2022/01/22 01:46:25;;;;;;;3.22;1.98;;;16.70;51.00;;;;;;4994902;28;45600;-77
2022/01/22 01:48:53;;;;;;;3.45;2.20;;;16.70;51.00;;;;;;4999150;28;45346;-77
2022/01/22 01:51:23;;;;;;;2.83;1.95;;;16.70;51.00;;;;;;5005490;28;47068;-77
2022/01/22 01:53:57;;;;;;;4.30;1.90;;;16.70;51.00;;;;;;4997884;28;45284;-77
2022/01/22 01:59:10;;;;;;;5.22;2.70;;;16.70;51.00;;;;;;5008117;28;45217;-77
2022/01/22 02:01:36;;;;;;;4.28;1.90;;;16.70;51.00;;;;;;5007878;28;47119;-78
2022/01/22 02:04:08;;;;;;;3.03;2.03;;;16.70;51.00;;;;;;5007030;28;46076;-77
2022/01/22 02:06:35;;;;;;;3.33;2.17;;;16.80;51.10;;;;;;5007043;28;45128;-78
2022/01/22 02:09:02;;;;;;;4.50;2.13;;;16.80;51.10;;;;;;5006835;28;45378;-77
2022/01/22 02:11:29;;;;;;;3.42;2.38;;;16.80;51.10;;;;;;5007605;28;45497;-77
2022/01/22 02:14:06;;;;;;;4.82;2.50;;;16.80;51.10;;;;;;5007724;28;45498;-78
2022/01/22 02:24:53;;;;;;;4.10;2.50;;;16.80;51.10;;;;;;5007680;28;45566;-78
2022/01/22 02:27:20;;;;;;;3.80;2.40;;;16.80;51.10;;;;;;5008020;28;45439;-77
2022/01/22 02:29:47;;;;;;;5.75;2.83;;;16.80;51.10;;;;;;5008761;28;45153;-77
2022/01/22 02:35:08;;;;;;;3.30;2.50;;;16.80;51.10;;;;;;5004007;28;45245;-78
2022/01/22 02:37:41;;;;;;;5.38;2.92;;;16.70;51.00;;;;;;5007455;28;45356;-77
2022/01/22 02:40:13;;;;;;;4.05;2.45;;;16.80;51.30;;;;;;5007812;28;45260;-77
2022/01/22 02:42:40;;;;;;;3.72;2.33;;;16.80;51.10;;;;;;5008661;28;47394;-78
2022/01/22 02:45:11;;;;;;;5.07;2.95;;;16.70;51.00;;;;;;5008198;28;45152;-78
2022/01/22 02:47:38;;;;;;;3.60;2.30;;;16.80;51.10;;;;;;5007322;28;45444;-78
2022/01/22 02:50:06;;;;;;;4.50;3.25;;;16.70;51.00;;;;;;5007547;28;45263;-78
2022/01/22 02:52:33;;;;;;;3.75;2.60;;;16.70;51.00;;;;;;5006408;28;46010;-77
2022/01/22 02:55:02;;;;;;;6.47;3.05;;;16.70;51.00;;;;;;5003183;28;45164;-78
2022/01/22 02:57:31;;;;;;;4.60;2.58;;;16.80;51.10;;;;;;5002966;28;45339;-78
2022/01/22 02:59:59;;;;;;;2.78;2.15;;;16.70;51.00;;;;;;4998103;28;45346;-78
2022/01/22 03:02:27;;;;;;;4.13;2.22;;;16.80;52.50;;;;;;5006917;28;45386;-78
2022/01/22 03:04:54;;;;;;;3.47;2.20;;;16.80;51.90;;;;;;5007041;28;45232;-78
2022/01/22 03:07:21;;;;;;;3.05;2.15;;;16.90;52.10;;;;;;5006710;28;45479;-78
2022/01/22 03:09:50;;;;;;;3.88;2.15;;;16.90;51.90;;;;;;5006694;28;45287;-78
2022/01/22 03:12:46;;;;;;;3.45;2.15;;;16.90;51.90;;;;;;5008115;28;46430;-78
2022/01/22 03:18:07;;;;;;;4.70;2.13;;;16.90;52.20;;;;;;5007520;28;45308;-78
2022/01/22 03:28:53;;;;;;;4.15;2.33;;;16.90;52.30;;;;;;5008322;28;45659;-78
2022/01/22 03:31:20;;;;;;;3.83;2.30;;;16.90;52.40;;;;;;5008320;28;45285;-78
2022/01/22 03:33:47;;;;;;;2.53;1.88;;;16.90;52.30;;;;;;5008170;28;48226;-78
2022/01/22 03:36:14;;;;;;;3.28;1.90;;;16.90;52.80;;;;;;5008133;28;45348;-78
2022/01/22 03:38:42;;;;;;;3.08;2.13;;;16.90;53.20;;;;;;5007947;28;45220;-78
2022/01/22 03:41:08;;;;;;;3.15;1.83;;;16.90;52.90;;;;;;5007418;28;45318;-78
2022/01/22 03:43:35;;;;;;;3.42;2.15;;;16.90;53.00;;;;;;5007034;28;47850;-78
2022/01/22 03:46:03;;;;;;;2.92;1.90;;;16.90;53.60;;;;;;5008058;28;45169;-78
2022/01/22 03:48:30;;;;;;;3.65;2.20;;;16.90;53.50;;;;;;5004923;28;45296;-78
2022/01/22 03:50:57;;;;;;;2.97;2.10;;;16.90;53.40;;;;;;4997164;28;45280;-78
2022/01/22 03:53:24;;;;;;;5.00;2.30;;;16.90;53.50;;;;;;5004360;28;45295;-78
2022/01/22 03:56:01;;;;;;;3.13;2.20;;;16.90;53.30;;;;;;5002348;28;46490;-78
2022/01/22 03:58:29;;;;;;;3.88;2.15;;;16.90;54.80;;;;;;5006263;28;45312;-78
2022/01/22 04:01:14;;;;;;;4.70;2.30;;;16.90;53.50;;;;;;5006953;28;45388;-78
2022/01/22 04:03:46;;;;;;;3.83;2.10;;;16.90;53.50;;;;;;5006904;28;46433;-78
2022/01/22 04:06:40;;;;;;;2.30;1.83;;;16.90;53.50;;;;;;4997003;28;45174;-78
2022/01/22 04:09:09;;;;;;;3.58;2.13;;;16.90;53.50;;;;;;5006020;28;45370;-78
2022/01/22 04:11:40;;;;;;;3.03;1.90;;;16.90;53.40;;;;;;5006935;28;45275;-78
2022/01/22 04:14:14;;;;;;;2.33;2.03;;;16.90;53.50;;;;;;5006517;28;48088;-78
2022/01/22 04:16:46;;;;;;;2.58;1.80;;;16.90;54.30;;;;;;5006882;28;45331;-78
2022/01/22 04:24:54;;;;;;;4.13;2.30;;;16.90;53.50;;;;;;5006876;28;45637;-78
2022/01/22 04:27:23;;;;;;;3.97;2.45;;;16.90;53.50;;;;;;5007067;28;45342;-78
2022/01/22 04:29:51;;;;;;;2.10;1.63;;;16.90;53.50;;;;;;5006983;28;45393;-78
2022/01/22 04:32:18;;;;;;;4.82;2.03;;;16.90;53.60;;;;;;5006320;28;45295;-78
2022/01/22 04:34:47;;;;;;;4.07;2.47;;;16.90;53.60;;;;;;5007870;28;45227;-78
2022/01/22 04:37:14;;;;;;;3.10;2.15;;;16.90;53.50;;;;;;5005615;28;45261;-78
2022/01/22 04:39:41;;;;;;;5.00;2.28;;;16.90;53.50;;;;;;5006608;28;45303;-78
2022/01/22 04:42:08;;;;;;;3.40;2.08;;;16.90;53.40;;;;;;5007551;28;45182;-78
2022/01/22 04:44:43;;;;;;;3.58;2.25;;;16.90;53.50;;;;;;5007221;28;46322;-78
2022/01/22 04:47:28;;;;;;;4.30;2.28;;;16.90;53.60;;;;;;5002167;28;45340;-78
2022/01/22 04:52:43;;;;;;;3.80;2.28;;;16.90;53.90;;;;;;5006576;28;45286;-77
2022/01/22 04:55:10;;;;;;;2.85;1.85;;;16.90;53.80;;;;;;5006265;28;48179;-78
2022/01/22 04:57:40;;;;;;;5.20;2.22;;;16.90;53.80;;;;;;5007335;28;45422;-78
2022/01/22 05:00:09;;;;;;;4.22;2.22;;;16.90;53.80;;;;;;5005990;28;45399;-78
2022/01/22 05:02:36;;;;;;;4.03;2.00;;;16.90;53.80;;;;;;5006721;28;45554;-78
2022/01/22 05:05:05;;;;;;;3.60;2.22;;;16.90;54.00;;;;;;5005548;28;47849;-78
2022/01/22 05:07:32;;;;;;;4.72;2.40;;;16.90;54.00;;;;;;5003782;28;45330;-78
2022/01/22 05:10:01;;;;;;;4.97;2.90;;;16.90;53.40;;;;;;5009648;28;46747;-78
2022/01/22 05:12:28;;;;;;;3.08;2.53;;;16.90;53.00;;;;;;5009276;28;45392;-78
2022/01/22 05:14:55;;;;;;;3.15;2.22;;;16.90;52.90;;;;;;5009857;28;45528;-78
2022/01/22 05:17:22;;;;;;;4.40;2.53;;;16.90;52.80;;;;;;5210993;22;45761;-76
2022/01/22 05:19:54;;;;;;;4.05;2.50;;;16.90;52.70;;;;;;5009126;28;45216;-76
2022/01/22 05:22:42;;;;;;;3.60;2.65;;;16.90;52.60;;;;;;5009640;28;45347;-76
2022/01/22 05:25:18;;;;;;;4.18;2.50;;;16.90;52.50;;;;;;5007718;28;48149;-76
2022/01/22 05:27:58;;;;;;;4.32;2.70;;;16.90;52.60;;;;;;5008131;28;45406;-76
2022/01/22 05:30:52;;;;;;;5.45;2.60;;;16.90;52.50;;;;;;5009336;28;45232;-76
2022/01/22 05:36:54;;;;;;;3.90;2.40;;;16.90;52.50;;;;;;5005103;28;46179;-77
2022/01/22 05:39:09;;;;;;;3.30;2.50;;;16.80;52.30;;;;;;5005611;28;45291;-77
2022/01/22 05:41:36;;;;;;;4.22;2.70;;;16.80;52.30;;;;;;4999526;28;45356;-77
2022/01/22 05:44:03;;;;;;;6.80;2.90;;;16.80;52.50;;;;;;5008851;28;45210;-77
2022/01/22 05:46:30;;;;;;;4.57;2.80;;;16.90;52.50;;;;;;5007465;28;47399;-77
2022/01/22 05:48:57;;;;;;;4.47;2.78;;;16.90;52.60;;;;;;5006983;28;45180;-77
2022/01/22 05:51:24;;;;;;;4.15;2.45;;;16.90;52.30;;;;;;5008407;28;45180;-77
2022/01/22 05:54:14;;;;;;;3.75;2.42;;;16.90;52.20;;;;;;5001722;28;46002;-77
2022/01/22 05:59:37;;;;;;;5.03;2.60;;;16.90;52.20;;;;;;5005828;28;45471;-77
2022/01/22 06:02:05;;;;;;;5.78;2.78;;;16.90;52.30;;;;;;4999904;28;45405;-77
2022/01/22 06:04:32;;;;;;;4.53;3.20;;;16.90;52.20;;;;;;5008323;28;45194;-77
2022/01/22 06:07:00;;;;;;;5.03;2.85;;;16.90;52.00;;;;;;5008351;28;48139;-77
2022/01/22 06:09:28;;;;;;;5.90;2.72;;;16.90;52.10;;;;;;5008207;28;45293;-76
2022/01/22 06:12:03;;;;;;;3.20;2.40;;;16.90;52.10;;;;;;5007248;28;45254;-76
2022/01/22 06:14:31;;;;;;;3.97;2.67;;;16.90;52.20;;;;;;4995723;28;45307;-77
2022/01/22 06:16:59;;;;;;;4.60;3.08;;;16.90;52.10;;;;;;5008240;28;47228;-77
2022/01/22 06:19:25;;;;;;;4.75;2.70;;;16.90;52.00;;;;;;5007807;28;45360;-77
2022/01/22 06:21:53;;;;;;;5.30;2.63;;;16.80;52.00;;;;;;5006196;28;45290;-77
2022/01/22 06:24:20;;;;;;;4.38;2.83;;;16.90;52.20;;;;;;5008125;28;45708;-77
2022/01/22 06:26:49;;;;;;;4.70;2.85;;;16.90;52.10;;;;;;5006846;28;47613;-77
2022/01/22 06:29:19;;;;;;;3.33;2.65;;;16.90;52.00;;;;;;5007339;28;45160;-77
2022/01/22 06:31:48;;;;;;;4.00;2.60;;;16.90;52.00;;;;;;5008875;28;45415;-77
2022/01/22 06:34:15;;;;;;;3.65;2.50;;;16.90;52.10;;;;;;5006749;28;45303;-77
2022/01/22 06:36:42;;;;;;;5.10;2.97;;;16.90;52.00;;;;;;5008114;28;47332;-77
2022/01/22 06:39:12;;;;;;;5.55;3.05;;;16.90;52.10;;;;;;5008123;28;45221;-77
2022/01/22 06:41:45;;;;;;;4.50;2.88;;;16.90;52.30;;;;;;5006331;28;45322;-77
2022/01/22 06:44:13;;;;;;;4.30;2.90;;;16.90;51.90;;;;;;5006324;28;45318;-77
2022/01/22 06:46:43;;;;;;;4.25;2.60;;;16.90;51.80;;;;;;5007954;28;48391;-77
2022/01/22 06:49:11;;;;;;;5.88;3.25;;;16.90;51.90;;;;;;5006602;28;45594;-77
2022/01/22 06:51:38;;;;;;;3.88;2.72;;;16.90;52.00;;;;;;5008593;28;45425;-77
2022/01/22 06:54:07;;;;;;;4.28;3.03;;;16.90;51.90;;;;;;5007529;28;45271;-77
2022/01/22 06:56:33;;;;;;;3.53;2.90;;;16.90;52.10;;;;;;5006891;28;47558;-77
2022/01/22 06:59:01;;;;;;;6.25;3.00;;;16.90;52.10;;;;;;5007848;28;45153;-77
2022/01/22 07:01:28;;;;;;;4.78;3.28;;;16.90;52.10;;;;;;5007681;28;45362;-77
2022/01/22 07:03:57;;;;;;;5.50;3.13;;;16.90;51.80;;;;;;5008233;28;45349;-77
2022/01/22 07:06:24;;;;;;;4.00;3.00;;;16.90;51.90;;;;;;5005993;28;48156;-77
2022/01/22 07:08:51;;;;;;;5.47;3.33;;;16.90;51.90;;;;;;5006867;28;45201;-77
2022/01/22 07:11:19;;;;;;;4.70;3.40;;;16.90;52.00;;;;;;5005972;28;45461;-77
2022/01/22 07:13:46;;;;;;;4.82;3.63;;;16.90;51.90;;;;;;5007292;28;45561;-77
2022/01/22 07:16:13;;;;;;;4.47;3.67;;;16.90;51.80;;;;;;5005912;28;46513;-77
2022/01/22 07:18:41;;;;;;;6.07;3.92;;;16.90;52.00;;;;;;5008227;28;45113;-80
2022/01/22 07:21:15;;;;;;;4.45;3.30;;;16.80;52.30;;;;;;5008794;28;45570;-79
2022/01/22 07:24:22;;;;;;;4.85;3.58;;;16.80;52.70;;;;;;5005920;28;45314;-79
2022/01/22 07:26:44;;;;;;;6.47;4.05;;;16.80;52.20;;;;;;5006708;28;46055;-78
2022/01/22 07:29:11;;;;;;;6.47;3.58;;;16.80;52.30;;;;;;5007851;28;45231;-78
2022/01/22 07:31:39;;;;;;;5.53;4.30;;;16.80;52.50;;;;;;5005722;28;45422;-78
2022/01/22 07:34:06;;;;;;;6.45;4.40;;;16.80;52.40;;;;;;5006284;28;45490;-78
2022/01/22 07:36:35;;;;;;;7.55;4.35;;;16.80;52.50;;;;;;5006802;28;48211;-79
2022/01/22 07:39:04;;;;;;;4.95;4.07;;;16.80;52.70;;;;;;5005752;28;45218;-78
2022/01/22 07:41:31;;;;;;;6.03;4.68;;;16.80;52.50;;;;;;5004470;28;45337;-78
2022/01/22 07:43:58;;;;;;;6.43;3.80;;;16.80;52.40;;;;;;5006855;28;45081;-77
2022/01/22 07:46:27;;;;;;;6.50;4.50;;;16.80;52.20;;;;;;5000840;28;46517;-78
2022/01/22 07:48:54;;;;;;;6.95;4.38;;;16.90;52.20;;;;;;5001505;28;45410;-78
2022/01/22 07:51:22;;;;;;;8.50;4.93;;;16.90;52.20;;;;;;4997123;28;45611;-77
2022/01/22 07:53:51;;;;;;;6.75;4.55;;;16.90;52.20;;;;;;5006809;28;45476;-77
2022/01/22 07:56:21;;;;;;;6.30;4.75;;;16.90;52.10;;;;;;5007331;28;45390;-77
2022/01/22 07:58:48;;;;;;;5.30;4.53;;;16.90;52.10;;;;;;4992960;28;45582;-77
2022/01/22 08:01:16;;;;;;;5.03;4.35;;;16.90;52.10;;;;;;5007841;28;45337;-78
2022/01/22 08:03:43;;;;;;;6.90;4.70;;;16.90;52.30;;;;;;5006703;28;45532;-78
2022/01/22 08:06:10;;;;;;;7.15;4.70;;;16.80;52.30;;;;;;4999927;28;48247;-77
2022/01/22 08:08:37;;;;;;;8.25;5.00;;;16.80;52.30;;;;;;5005908;28;45372;-78
2022/01/22 08:11:06;;;;;;;6.28;4.75;;;16.90;52.50;;;;;;5007926;28;45209;-78
2022/01/22 08:13:32;;;;;;;6.78;5.22;;;16.90;52.50;;;;;;5006567;28;45241;-77
2022/01/22 08:16:00;;;;;;;6.47;5.30;;;16.80;52.40;;;;;;5006511;28;48418;-78
2022/01/22 08:18:29;;;;;;;7.00;5.13;;;16.90;52.50;;;;;;5006906;28;45522;-77
2022/01/22 08:20:57;;;;;;;7.22;5.10;;;16.80;52.40;;;;;;5005937;28;45335;-77
2022/01/22 08:23:27;;;;;;;8.35;5.90;;;16.80;52.50;;;;;;5007896;28;45291;-78
2022/01/22 08:25:56;;;;;;;10.38;6.13;;;16.80;52.60;;;;;;5006474;28;45905;-78
2022/01/22 08:31:23;;;;;;;8.60;5.95;;;16.70;52.70;;;;;;5005647;28;45319;-77
2022/01/22 08:36:37;;;;;;;7.63;5.20;;;16.80;52.90;;;;;;5008262;28;45217;-78
2022/01/22 08:39:06;;;;;;;8.15;6.10;;;16.80;52.90;;;;;;5016278;28;45312;-79
2022/01/22 08:41:38;;;;;;;6.68;5.47;;;16.80;52.80;;;;;;5009439;28;45310;-79
2022/01/22 08:44:08;;;;;;;8.43;5.57;;;16.00;52.10;;;;;;5009920;28;46056;-79
2022/01/22 08:46:36;;;;;;;7.13;5.32;;;16.80;52.90;;;;;;5010856;28;48057;-79
2022/01/22 08:49:07;;;;;;;8.32;5.85;;;16.80;53.30;;;;;;5009533;28;45366;-78
2022/01/22 08:51:38;;;;;;;9.23;5.85;;;16.80;52.80;;;;;;5011126;28;45219;-78
2022/01/22 08:54:06;;;;;;;8.02;5.70;;;16.80;52.70;;;;;;5009105;28;45419;-77
2022/01/22 08:56:33;;;;;;;6.63;5.10;;;16.90;52.80;;;;;;5010512;28;47101;-77
2022/01/22 08:59:00;;;;;;;7.65;5.80;;;16.80;52.80;;;;;;5008279;28;45852;-77
2022/01/22 09:01:30;;;;;;;6.78;5.25;;;16.80;52.90;;;;;;5010185;28;45334;-77
2022/01/22 09:03:57;;;;;;;8.02;5.97;;;16.80;52.90;;;;;;4999098;28;45271;-78
2022/01/22 09:06:28;;;;;;;7.75;6.00;;;16.80;53.00;;;;;;5007502;28;48546;-79
2022/01/22 09:09:04;;;;;;;8.00;6.15;;;16.80;53.00;;;;;;4991896;28;45345;-78
2022/01/22 09:11:31;;;;;;;9.75;6.18;;;16.80;53.10;;;;;;5006143;28;45352;-77
2022/01/22 09:13:59;;;;;;;6.80;5.63;;;16.80;53.10;;;;;;5008712;28;45523;-77
2022/01/22 09:16:27;;;;;;;8.00;5.88;;;16.80;53.00;;;;;;5009643;28;47316;-77
2022/01/22 09:19:01;;;;;;;7.43;5.78;;;16.80;53.10;;;;;;5009412;28;45248;-77
2022/01/22 09:21:27;;;;;;;7.60;5.53;;;16.80;53.10;;;;;;5009229;28;45668;-77
2022/01/22 09:23:57;;;;;;;8.70;5.07;;;16.80;53.00;;;;;;5019410;28;44958;-82
2022/01/22 09:26:33;;;;;;;5.78;4.00;;;17.00;55.70;;;;;;5023069;28;45277;-83
2022/01/22 09:29:09;;;;;;;13.88;4.28;;;16.90;57.10;;;;;;5022030;28;46014;-84
2022/01/22 09:31:37;;;;;;;16.83;5.28;;;17.00;54.50;;;;;;5020103;28;45125;-80
2022/01/22 09:34:06;;;;;;;13.95;4.85;;;17.40;57.30;;;;;;5008285;28;46005;-80
2022/01/22 09:36:35;;;;;;;13.95;4.82;;;17.20;56.60;;;;;;5012426;28;47748;-78
2022/01/22 09:39:04;;;;;;;17.63;4.22;;;17.10;55.90;;;;;;5012992;28;45243;-76
2022/01/22 09:41:32;;;;;;;14.80;3.90;;;17.50;56.40;;;;;;5014089;28;45271;-73
2022/01/22 09:43:59;;;;;;;7.80;3.72;;;17.60;57.20;;;;;;5009575;28;45209;-76
2022/01/22 09:46:32;;;;;;;8.57;3.38;;;17.60;56.80;;;;;;5010583;28;48690;-79
2022/01/22 09:49:06;;;;;;;11.90;3.05;;;17.60;56.80;;;;;;5008769;28;45115;-80
2022/01/22 09:51:34;;;;;;;8.20;2.92;;;17.50;57.60;;;;;;5009760;28;45249;-77
2022/01/22 09:59:29;;;;;;;5.78;2.72;;;20.70;63.10;;;;;;5156400;27;45408;-72
2022/01/22 10:02:08;;;;;;;7.82;2.28;;;18.30;56.20;;;;;;5134574;27;45314;-77
2022/01/22 10:04:36;;;;;;;4.90;2.03;;;18.00;56.20;;;;;;5138320;27;45404;-75
2022/01/22 10:07:03;;;;;;;5.85;2.10;;;17.80;55.80;;;;;;5121806;27;45649;-75
2022/01/22 10:09:37;;;;;;;3.42;2.20;;;17.80;55.50;;;;;;5134528;27;48219;-74
2022/01/22 10:12:11;;;;;;;3.92;1.88;;;17.80;55.30;;;;;;5127881;27;45244;-75
2022/01/22 10:15:09;;;;;;;3.75;1.85;;;17.60;55.00;;;;;;5125029;27;45275;-74
2022/01/22 10:17:40;;;;;;;5.70;1.95;;;17.50;55.30;;;;;;5124732;27;45291;-73
2022/01/22 10:20:27;;;;;;;1.98;1.63;;;17.40;55.40;;;;;;5128222;27;46799;-73
2022/01/22 10:22:58;;;;;;;3.53;1.70;;;17.40;55.50;;;;;;5125193;27;45288;-73
2022/01/22 10:25:30;;;;;;;2.58;1.60;;;17.30;55.40;;;;;;5130605;27;45261;-73
2022/01/22 10:27:58;;;;;;;5.82;1.80;;;17.30;55.10;;;;;;5127910;27;45354;-73
2022/01/22 10:30:34;;;;;;;2.20;1.50;;;17.30;55.00;;;;;;5126585;27;47302;-76
2022/01/22 10:33:18;;;;;;;4.22;1.90;;;17.30;55.00;;;;;;5137575;27;45342;-75
2022/01/22 10:35:45;;;;;;;1.92;1.40;;;17.30;54.80;;;;;;5121111;27;45250;-76
2022/01/22 10:38:13;;;;;;;1.67;1.30;;;17.30;55.00;;;;;;5129855;27;45504;-75
2022/01/22 10:40:42;;;;;;;3.03;1.63;;;17.30;54.90;;;;;;5123644;27;47887;-75
2022/01/22 10:43:16;;;;;;;2.10;1.83;;;17.30;54.70;;;;;;5120639;27;45407;-76
2022/01/22 10:45:59;;;;;;;2.40;1.38;;;17.40;54.80;;;;;;5126216;27;45881;-75
2022/01/22 10:48:26;;;;;;;4.18;1.15;;;17.30;54.70;;;;;;5116986;27;45322;-75
2022/01/22 10:51:12;;;;;;;2.00;1.17;;;17.30;54.60;;;;;;5122070;27;46210;-76
2022/01/22 10:53:43;;;;;;;2.03;1.60;;;17.30;54.80;;;;;;5126065;27;46139;-75
2022/01/22 10:56:12;;;;;;;2.95;1.27;;;17.30;54.80;;;;;;5115851;27;45293;-75
2022/01/22 10:58:54;;;;;;;2.78;1.50;;;17.30;54.80;;;;;;5130256;27;45485;-76
2022/01/22 11:01:24;;;;;;;1.75;1.30;;;17.30;54.80;;;;;;5113356;27;45666;-75
2022/01/22 11:04:07;;;;;;;1.52;1.30;;;17.30;54.80;;;;;;5114796;27;45436;-76
2022/01/22 11:06:34;;;;;;;2.33;1.20;;;17.30;54.70;;;;;;5117133;27;45308;-76
2022/01/22 11:09:01;;;;;;;1.90;1.30;;;17.30;54.60;;;;;;5120201;27;45257;-76
2022/01/22 11:11:29;;;;;;;2.90;1.20;;;17.30;54.50;;;;;;5113770;27;46438;-75
2022/01/22 11:13:56;;;;;;;1.45;1.23;;;17.30;54.50;;;;;;5102957;27;45468;-75
2022/01/22 11:16:26;;;;;;;2.03;1.42;;;17.30;54.50;;;;;;5111453;27;45482;-76
2022/01/22 11:18:54;;;;;;;2.38;1.40;;;17.30;54.40;;;;;;5112942;27;45426;-76
2022/01/22 11:21:22;;;;;;;2.33;1.20;;;17.30;54.40;;;;;;5115914;27;47067;-75
2022/01/22 11:23:50;;;;;;;1.95;1.50;;;17.30;54.40;;;;;;5106139;27;45617;-75
2022/01/22 11:26:17;;;;;;;1.85;1.42;;;17.30;54.60;;;;;;5119221;27;45312;-76
2022/01/22 11:28:45;;;;;;;1.67;1.40;;;17.30;54.60;;;;;;5110709;27;45247;-76
2022/01/22 11:31:17;;;;;;;2.72;1.30;;;17.30;54.60;;;;;;5116817;27;46200;-76
2022/01/22 11:33:49;;;;;;;1.40;1.20;;;17.30;54.60;;;;;;5109621;27;45329;-76
2022/01/22 11:36:20;;;;;;;1.55;1.30;;;17.30;54.50;;;;;;5101802;27;45243;-75
2022/01/22 11:38:54;;;;;;;1.52;1.25;;;17.30;54.40;;;;;;5099133;27;46707;-76
2022/01/22 11:41:22;;;;;;;2.28;1.35;;;17.30;54.30;;;;;;5111333;27;47923;-76
2022/01/22 11:44:05;;;;;;;2.75;1.60;;;17.30;54.40;;;;;;5114526;27;45345;-76
2022/01/22 11:46:36;;;;;;;1.65;1.38;;;17.30;54.50;;;;;;5115352;27;45504;-75
2022/01/22 11:49:16;;;;;;;1.60;1.50;;;17.30;54.50;;;;;;5118499;27;45522;-76
2022/01/22 11:51:45;;;;;;;1.95;1.70;;;17.20;54.40;;;;;;5118934;27;47815;-75
2022/01/22 11:54:13;;;;;;;1.95;1.60;;;17.30;54.50;;;;;;5107720;27;45409;-76
2022/01/22 11:56:48;;;;;;;1.63;1.33;;;17.20;54.60;;;;;;5107777;27;45894;-76
2022/01/22 11:59:24;;;;;;;2.30;1.50;;;17.20;54.50;;;;;;5109811;27;45341;-75
2022/01/22 12:01:56;;;;;;;2.17;1.40;;;17.30;54.60;;;;;;5116043;27;46236;-75
2022/01/22 12:04:25;;;;;;;2.20;1.52;;;17.30;54.60;;;;;;5107999;27;45737;-75
2022/01/22 12:07:12;;;;;;;1.58;1.38;;;17.30;55.70;;;;;;5112638;27;45396;-75
2022/01/22 12:09:51;;;;;;;1.20;1.10;;;17.30;54.40;;;;;;5120406;27;45294;-75
2022/01/22 12:15:11;;;;;;;1.95;1.45;;;17.30;54.50;;;;;;5110564;27;45221;-75
2022/01/22 12:18:12;;;;;;;2.22;1.20;;;17.20;54.60;;;;;;5114536;27;46384;-75
2022/01/22 12:23:50;;;;;;;2.13;1.60;;;17.20;54.80;;;;;;5090284;27;45164;-75
2022/01/22 12:26:50;;;;;;;2.63;1.65;;;17.20;54.70;;;;;;5106766;27;45334;-75
2022/01/22 12:29:39;;;;;;;2.10;1.33;;;17.20;54.80;;;;;;5113565;27;45473;-76
2022/01/22 12:32:32;;;;;;;4.63;1.50;;;17.20;54.80;;;;;;5110686;27;45112;-76
2022/01/22 12:35:09;;;;;;;4.45;1.45;;;17.30;54.90;;;;;;5114924;27;46997;-76
2022/01/22 12:37:42;;;;;;;2.33;1.63;;;17.30;54.70;;;;;;5098655;27;45486;-77
2022/01/22 12:40:10;;;;;;;4.15;1.88;;;17.30;54.60;;;;;;5097290;27;45298;-75
2022/01/22 12:42:54;;;;;;;4.30;1.58;;;17.30;54.40;;;;;;5097609;27;45540;-75
2022/01/22 12:45:25;;;;;;;2.25;1.52;;;17.30;54.60;;;;;;5122929;27;48092;-76
2022/01/22 12:47:54;;;;;;;2.40;1.70;;;17.30;54.50;;;;;;5113261;27;45234;-76
2022/01/22 12:50:27;;;;;;;4.82;1.70;;;17.30;54.90;;;;;;5113906;27;46435;-73
2022/01/22 12:53:01;;;;;;;2.20;1.42;;;17.30;54.80;;;;;;5103529;27;45306;-77
2022/01/22 12:55:48;;;;;;;2.40;1.80;;;17.30;54.60;;;;;;5117685;27;47292;-76
2022/01/22 12:58:21;;;;;;;1.95;1.70;;;17.30;54.40;;;;;;5088018;28;45276;-75
2022/01/22 13:00:48;;;;;;;5.00;1.60;;;17.30;54.30;;;;;;5088799;28;45156;-75
2022/01/22 13:03:30;;;;;;;4.43;1.40;;;17.30;54.20;;;;;;5101824;27;45620;-76
2022/01/22 13:05:57;;;;;;;3.00;1.55;;;17.40;54.30;;;;;;5094156;27;48006;-76
2022/01/22 13:08:29;;;;;;;3.63;1.52;;;17.30;54.00;;;;;;5108618;27;45331;-75
2022/01/22 13:10:59;;;;;;;2.47;1.70;;;17.30;54.10;;;;;;5090891;27;45234;-75
2022/01/22 13:13:26;;;;;;;1.27;1.17;;;17.40;54.00;;;;;;5097435;27;45397;-75
2022/01/22 13:16:06;;;;;;;2.53;1.70;;;17.40;54.00;;;;;;5088171;28;45312;-76
2022/01/22 13:18:46;;;;;;;2.22;1.50;;;17.40;54.00;;;;;;5101307;27;45351;-75
2022/01/22 13:21:15;;;;;;;1.55;1.33;;;17.40;54.00;;;;;;5098225;27;45213;-76
2022/01/22 13:23:46;;;;;;;1.67;1.50;;;17.40;53.90;;;;;;5109052;27;45369;-75
2022/01/22 13:26:13;;;;;;;2.65;1.65;;;17.40;53.90;;;;;;5108330;27;48193;-76
2022/01/22 13:28:40;;;;;;;3.22;1.80;;;17.40;53.80;;;;;;5104920;27;45167;-75
2022/01/22 13:31:12;;;;;;;1.60;1.50;;;17.50;53.90;;;;;;5087816;27;45220;-75
2022/01/22 13:33:46;;;;;;;1.42;1.20;;;17.40;54.00;;;;;;5088032;28;45185;-75
2022/01/22 13:36:23;;;;;;;2.58;1.45;;;17.40;53.90;;;;;;5087898;28;45316;-75
2022/01/22 13:49:53;;;;;;;3.15;1.80;;;17.40;54.00;;;;;;5087493;28;45407;-76
2022/01/22 13:52:27;;;;;;;5.38;1.77;;;17.50;54.10;;;;;;5087875;28;45234;-76
2022/01/22 13:54:55;;;;;;;2.40;1.85;;;17.50;54.00;;;;;;5088322;28;45239;-77
2022/01/22 13:57:24;;;;;;;2.70;1.65;;;17.50;54.00;;;;;;5094998;27;45236;-76
2022/01/22 13:59:55;;;;;;;2.90;1.50;;;17.50;54.00;;;;;;5105821;27;45266;-75
2022/01/22 14:02:37;;;;;;;2.10;1.55;;;17.50;54.00;;;;;;5087263;27;45271;-76
2022/01/22 14:05:07;;;;;;;4.03;1.60;;;17.40;53.90;;;;;;5106589;27;45768;-75
2022/01/22 14:07:38;;;;;;;1.63;1.42;;;17.40;53.90;;;;;;5107015;27;46540;-74
2022/01/22 14:10:09;;;;;;;3.72;1.90;;;17.40;53.90;;;;;;5089302;27;45722;-75
2022/01/22 14:12:51;;;;;;;1.73;1.30;;;17.40;54.00;;;;;;5096542;27;45558;-75
2022/01/22 14:15:30;;;;;;;2.22;1.55;;;17.40;54.00;;;;;;5105862;27;45231;-76
2022/01/22 14:18:08;;;;;;;4.00;1.63;;;17.40;54.10;;;;;;5087595;28;47284;-76
2022/01/22 14:20:37;;;;;;;1.80;1.33;;;17.40;54.00;;;;;;5087101;28;45184;-75
2022/01/22 14:23:07;;;;;;;1.98;1.40;;;17.40;53.90;;;;;;5087439;27;45183;-76
2022/01/22 14:25:38;;;;;;;3.05;1.50;;;17.40;53.90;;;;;;5087045;27;45342;-76
2022/01/22 14:28:12;;;;;;;3.28;1.88;;;17.40;53.80;;;;;;5096956;27;47929;-76